createdAt,value
2024-03-10T00:00:22.176Z,1.64
2024-03-10T00:03:11.055Z,1.60
2024-03-10T00:05:41.877Z,1.56
2024-03-10T00:08:09.725Z,1.52
2024-03-10T00:10:42.804Z,1.49
2024-03-10T00:13:10.874Z,1.47
2024-03-10T00:15:39.030Z,1.42
2024-03-10T00:18:07.589Z,1.38
2024-03-10T00:20:35.708Z,1.33
2024-03-10T00:23:05.001Z,1.30
2024-03-10T00:25:32.856Z,1.26
2024-03-10T00:28:00.619Z,1.25
2024-03-10T00:30:29.461Z,1.23
2024-03-10T00:32:57.467Z,1.18
2024-03-10T00:35:25.309Z,1.15
2024-03-10T00:37:53.917Z,1.14
2024-03-10T00:40:21.745Z,1.11
2024-03-10T00:42:49.473Z,1.11
2024-03-10T00:45:17.332Z,1.09
2024-03-10T00:47:46.513Z,1.09
2024-03-10T00:50:15.877Z,1.08
2024-03-10T00:52:43.926Z,1.06
2024-03-10T00:55:12.073Z,1.06
2024-03-10T00:57:40.034Z,1.07
2024-03-10T01:00:11.715Z,1.04
2024-03-10T01:02:39.983Z,1.01
2024-03-10T01:05:08.958Z,0.99
2024-03-10T01:07:36.877Z,0.98
2024-03-10T01:10:05.059Z,0.97
2024-03-10T01:12:32.835Z,0.94
2024-03-10T01:15:00.595Z,0.93
2024-03-10T01:17:28.756Z,0.93
2024-03-10T01:19:58.169Z,0.93
2024-03-10T01:22:26.088Z,0.88
2024-03-10T01:24:55.401Z,0.84
2024-03-10T01:27:23.185Z,0.81
2024-03-10T01:29:52.232Z,0.77
2024-03-10T01:32:20.136Z,0.73
2024-03-10T01:34:48.029Z,0.67
2024-03-10T01:37:16.862Z,0.57
2024-03-10T01:39:44.681Z,0.52
2024-03-10T01:42:12.569Z,0.45
2024-03-10T01:44:40.474Z,0.32
2024-03-10T01:47:09.120Z,0.17
2024-03-10T01:49:38.012Z,0.05
2024-03-10T01:52:07.966Z,-0.10
2024-03-10T01:54:36.883Z,-0.20
2024-03-10T01:57:06.252Z,-0.28
2024-03-10T01:59:35.228Z,-0.35
2024-03-10T02:02:06.263Z,-0.39
2024-03-10T02:04:34.320Z,-0.41
2024-03-10T02:07:03.054Z,-0.41
2024-03-10T02:09:32.097Z,-0.41
2024-03-10T02:12:00.354Z,-0.41
2024-03-10T02:14:28.192Z,-0.39
2024-03-10T02:16:55.972Z,-0.35
2024-03-10T02:19:23.763Z,-0.30
2024-03-10T02:21:51.501Z,-0.27
2024-03-10T02:24:25.541Z,-0.26
2024-03-10T02:26:53.331Z,-0.25
2024-03-10T02:29:22.634Z,-0.22
2024-03-10T02:32:10.273Z,-0.17
2024-03-10T02:34:57.939Z,-0.11
2024-03-10T02:37:44.574Z,-0.06
2024-03-10T02:40:31.271Z,-0.02
2024-03-10T02:43:17.968Z,-0.02
2024-03-10T02:46:04.229Z,-0.02
2024-03-10T02:48:33.104Z,0.01
2024-03-10T02:51:00.927Z,0.02
2024-03-10T02:53:28.761Z,0.04
2024-03-10T02:55:56.905Z,0.04
2024-03-10T02:58:24.628Z,0.07
2024-03-10T03:00:52.388Z,0.10
2024-03-10T03:03:20.189Z,0.11
2024-03-10T03:05:49.131Z,0.12
2024-03-10T03:08:17.805Z,0.14
2024-03-10T03:10:46.151Z,0.18
2024-03-10T03:13:13.985Z,0.20
2024-03-10T03:15:41.718Z,0.20
2024-03-10T03:18:09.686Z,0.21
2024-03-10T03:20:37.545Z,0.21
2024-03-10T03:23:05.606Z,0.23
2024-03-10T03:25:34.045Z,0.24
2024-03-10T03:28:02.083Z,0.25
2024-03-10T03:30:31.543Z,0.24
2024-03-10T03:32:59.463Z,0.26
2024-03-10T03:35:27.442Z,0.28
2024-03-10T03:37:55.394Z,0.30
2024-03-10T03:40:24.524Z,0.30
2024-03-10T03:42:52.431Z,0.33
2024-03-10T03:45:20.292Z,0.36
2024-03-10T03:47:48.090Z,0.39
2024-03-10T03:50:16.683Z,0.43
2024-03-10T03:52:44.631Z,0.46
2024-03-10T03:55:12.539Z,0.48
2024-03-10T03:57:40.305Z,0.51
2024-03-10T04:00:13.462Z,0.54
2024-03-10T04:02:41.457Z,0.56
2024-03-10T04:05:09.810Z,0.58
2024-03-10T04:07:37.606Z,0.60
2024-03-10T04:10:07.340Z,0.62
2024-03-10T04:12:35.063Z,0.63
2024-03-10T04:15:03.798Z,0.63
2024-03-10T04:17:33.261Z,0.66
2024-03-10T04:20:01.506Z,0.67
2024-03-10T04:22:29.513Z,0.69
2024-03-10T04:24:57.370Z,0.72
2024-03-10T04:27:25.351Z,0.72
2024-03-10T04:29:53.158Z,0.73
2024-03-10T04:32:20.953Z,0.72
2024-03-10T04:34:48.786Z,0.73
2024-03-10T04:37:16.600Z,0.74
2024-03-10T04:39:44.300Z,0.75
2024-03-10T04:42:11.964Z,0.76
2024-03-10T04:44:39.714Z,0.75
2024-03-10T04:47:07.573Z,0.75
2024-03-10T04:49:35.355Z,0.75
2024-03-10T04:52:03.423Z,0.76
2024-03-10T04:54:32.220Z,0.75
2024-03-10T04:57:00.863Z,0.77
2024-03-10T04:59:28.951Z,0.77
2024-03-10T05:01:58.095Z,0.79
2024-03-10T05:04:25.916Z,0.79
2024-03-10T05:06:53.658Z,0.82
2024-03-10T05:09:21.627Z,0.85
2024-03-10T05:11:49.553Z,0.87
2024-03-10T05:14:17.539Z,0.91
2024-03-10T05:16:45.421Z,0.93
2024-03-10T05:19:13.247Z,0.96
2024-03-10T05:21:46.579Z,1.02
2024-03-10T05:24:14.800Z,1.06
2024-03-10T05:26:42.598Z,1.12
2024-03-10T05:29:10.537Z,1.17
2024-03-10T05:31:38.518Z,1.21
2024-03-10T05:34:06.586Z,1.26
2024-03-10T05:36:35.098Z,1.30
2024-03-10T05:39:03.535Z,1.35
2024-03-10T05:41:31.521Z,1.40
2024-03-10T05:44:01.042Z,1.44
2024-03-10T05:46:28.881Z,1.48
2024-03-10T05:48:57.358Z,1.51
2024-03-10T05:51:25.805Z,1.55
2024-03-10T05:53:56.426Z,1.60
2024-03-10T05:56:24.430Z,1.63
2024-03-10T05:58:52.409Z,1.67
2024-03-10T06:01:25.365Z,1.68
2024-03-10T06:03:53.776Z,1.74
2024-03-10T06:06:24.808Z,1.79
2024-03-10T06:08:55.528Z,1.83
2024-03-10T06:11:24.634Z,1.87
2024-03-10T06:13:55.531Z,1.92
2024-03-10T06:16:25.709Z,1.97
2024-03-10T06:18:57.367Z,2.01
2024-03-10T06:21:48.733Z,2.07
2024-03-10T06:24:35.263Z,2.13
2024-03-10T06:27:03.726Z,2.21
2024-03-10T06:29:33.351Z,2.27
2024-03-10T06:32:01.653Z,2.35
2024-03-10T06:34:29.620Z,2.42
2024-03-10T06:37:01.808Z,2.50
2024-03-10T06:39:29.605Z,2.59
2024-03-10T06:42:01.545Z,2.68
2024-03-10T06:44:29.409Z,2.76
2024-03-10T06:46:57.279Z,2.85
2024-03-10T06:49:25.074Z,2.94
2024-03-10T06:51:58.425Z,3.03
2024-03-10T06:54:26.178Z,3.13
2024-03-10T06:56:56.126Z,3.24
2024-03-10T06:59:24.332Z,3.33
2024-03-10T07:01:56.872Z,3.44
2024-03-10T07:04:25.270Z,3.54
2024-03-10T07:06:56.504Z,3.67
2024-03-10T07:09:24.456Z,3.80
2024-03-10T07:11:55.499Z,3.93
2024-03-10T07:14:23.577Z,4.10
2024-03-10T07:16:55.538Z,4.27
2024-03-10T07:19:23.266Z,4.42
2024-03-10T07:21:54.331Z,4.63
2024-03-10T07:24:22.053Z,4.94
2024-03-10T07:26:52.140Z,5.41
2024-03-10T07:29:20.090Z,5.89
2024-03-10T07:31:48.430Z,6.34
2024-03-10T07:34:21.771Z,6.77
2024-03-10T07:36:52.129Z,7.16
2024-03-10T07:39:19.920Z,7.53
2024-03-10T07:41:47.752Z,7.78
2024-03-10T07:44:17.296Z,7.85
2024-03-10T07:46:45.247Z,7.91
2024-03-10T07:49:13.315Z,7.93
2024-03-10T07:51:41.082Z,7.91
2024-03-10T07:54:09.482Z,7.81
2024-03-10T07:56:37.436Z,7.76
2024-03-10T07:59:05.326Z,7.71
2024-03-10T08:01:33.154Z,7.69
2024-03-10T08:04:01.364Z,7.68
2024-03-10T08:06:29.309Z,7.76
2024-03-10T08:08:57.459Z,7.98
2024-03-10T08:11:25.367Z,8.26
2024-03-10T08:13:53.314Z,8.59
2024-03-10T08:16:21.254Z,8.83
2024-03-10T08:18:51.021Z,8.99
2024-03-10T08:21:20.037Z,9.05
2024-03-10T08:23:47.798Z,9.27
2024-03-10T08:26:15.779Z,9.44
2024-03-10T08:28:44.064Z,9.55
2024-03-10T08:31:14.032Z,9.58
2024-03-10T08:33:41.864Z,9.58
2024-03-10T08:36:10.445Z,9.71
2024-03-10T08:38:38.527Z,9.89
2024-03-10T08:41:06.501Z,10.25
2024-03-10T08:43:36.176Z,10.55
2024-03-10T08:46:04.505Z,10.92
2024-03-10T08:48:32.368Z,11.16
2024-03-10T08:51:00.151Z,11.20
2024-03-10T08:53:28.502Z,11.16
2024-03-10T08:55:56.955Z,11.31
2024-03-10T08:58:25.865Z,11.31
2024-03-10T09:00:53.781Z,11.34
2024-03-10T09:03:23.723Z,11.45
2024-03-10T09:05:52.278Z,11.74
2024-03-10T09:08:20.431Z,12.25
2024-03-10T09:10:53.769Z,12.61
2024-03-10T09:13:30.704Z,12.72
2024-03-10T09:15:58.869Z,12.55
2024-03-10T09:18:27.275Z,12.35
2024-03-10T09:20:57.593Z,12.26
2024-03-10T09:23:26.615Z,12.09
2024-03-10T09:25:55.985Z,11.92
2024-03-10T09:28:25.315Z,11.67
2024-03-10T09:30:53.095Z,11.39
2024-03-10T09:33:23.651Z,11.31
2024-03-10T09:35:55.363Z,11.32
2024-03-10T09:38:23.829Z,11.14
2024-03-10T09:40:52.628Z,11.03
2024-03-10T09:43:22.619Z,10.99
2024-03-10T09:45:53.417Z,10.97
2024-03-10T09:48:23.588Z,11.01
2024-03-10T09:50:53.285Z,11.06
2024-03-10T09:53:21.319Z,11.20
2024-03-10T09:55:50.008Z,11.38
2024-03-10T09:58:29.757Z,11.65
2024-03-10T10:01:13.455Z,12.13
2024-03-10T10:03:51.581Z,12.40
2024-03-10T10:06:21.940Z,12.63
2024-03-10T10:08:56.121Z,12.91
2024-03-10T10:11:27.191Z,12.87
2024-03-10T10:14:11.054Z,12.95
2024-03-10T10:16:49.130Z,12.97
2024-03-10T10:19:18.216Z,12.93
2024-03-10T10:21:46.277Z,12.82
2024-03-10T10:24:15.276Z,12.72
2024-03-10T10:26:43.337Z,12.74
2024-03-10T10:29:12.095Z,12.61
2024-03-10T10:31:40.051Z,12.57
2024-03-10T10:34:15.703Z,12.53
2024-03-10T10:36:45.004Z,12.50
2024-03-10T10:39:17.813Z,12.59
2024-03-10T10:41:47.016Z,12.78
2024-03-10T10:44:16.302Z,12.81
2024-03-10T10:46:45.781Z,12.70
2024-03-10T10:49:14.547Z,12.80
2024-03-10T10:51:45.966Z,13.00
2024-03-10T10:54:14.184Z,13.08
2024-03-10T10:56:42.229Z,13.26
2024-03-10T10:59:14.182Z,13.62
2024-03-10T11:01:46.629Z,13.70
2024-03-10T11:04:15.067Z,13.75
2024-03-10T11:06:43.821Z,13.66
2024-03-10T11:09:16.136Z,13.50
2024-03-10T11:11:47.528Z,13.23
2024-03-10T11:14:18.215Z,13.12
2024-03-10T11:16:46.450Z,12.85
2024-03-10T11:19:19.663Z,12.66
2024-03-10T11:21:51.598Z,12.59
2024-03-10T11:24:22.637Z,12.52
2024-03-10T11:27:11.578Z,12.50
2024-03-10T11:29:41.058Z,12.43
2024-03-10T11:32:34.766Z,12.39
2024-03-10T11:35:15.192Z,12.42
2024-03-10T11:37:44.336Z,12.33
2024-03-10T11:40:17.190Z,12.34
2024-03-10T11:42:46.512Z,12.40
2024-03-10T11:45:15.812Z,12.51
2024-03-10T11:47:59.272Z,12.54
2024-03-10T11:50:27.534Z,12.65
2024-03-10T11:52:55.404Z,12.73
2024-03-10T11:55:24.397Z,12.87
2024-03-10T11:57:55.385Z,12.93
2024-03-10T12:00:27.506Z,13.01
2024-03-10T12:02:56.509Z,13.09
2024-03-10T12:05:24.627Z,13.09
2024-03-10T12:07:59.299Z,13.14
2024-03-10T12:10:29.267Z,13.15
2024-03-10T12:12:59.123Z,13.19
2024-03-10T12:15:28.008Z,13.12
2024-03-10T12:17:56.226Z,13.17
2024-03-10T12:20:25.066Z,13.12
2024-03-10T12:22:54.421Z,13.07
2024-03-10T12:25:22.453Z,13.02
2024-03-10T12:27:50.754Z,13.03
2024-03-10T12:30:20.768Z,12.98
2024-03-10T12:32:54.608Z,12.98
2024-03-10T12:35:23.231Z,12.95
2024-03-10T12:37:52.875Z,12.96
2024-03-10T12:40:22.218Z,12.90
2024-03-10T12:42:52.280Z,12.98
2024-03-10T12:45:20.747Z,12.95
2024-03-10T12:47:52.307Z,12.92
2024-03-10T12:50:21.337Z,12.98
2024-03-10T12:52:49.636Z,13.14
2024-03-10T12:55:19.999Z,13.28
2024-03-10T12:57:47.834Z,13.37
2024-03-10T13:00:30.529Z,13.31
2024-03-10T13:02:59.343Z,13.28
2024-03-10T13:05:29.228Z,13.27
2024-03-10T13:07:58.908Z,13.28
2024-03-10T13:10:27.154Z,13.23
2024-03-10T13:12:55.069Z,13.24
2024-03-10T13:15:23.378Z,13.21
2024-03-10T13:17:51.668Z,13.16
2024-03-10T13:20:22.281Z,13.15
2024-03-10T13:22:50.534Z,13.13
2024-03-10T13:25:18.684Z,13.06
2024-03-10T13:27:46.561Z,13.06
2024-03-10T13:30:15.664Z,13.04
2024-03-10T13:32:43.893Z,12.91
2024-03-10T13:35:14.421Z,12.90
2024-03-10T13:37:42.671Z,12.90
2024-03-10T13:40:18.364Z,12.91
2024-03-10T13:42:47.427Z,12.95
2024-03-10T13:45:23.257Z,12.94
2024-03-10T13:48:00.304Z,12.95
2024-03-10T13:50:29.811Z,12.95
2024-03-10T13:52:57.909Z,12.89
2024-03-10T13:55:27.193Z,12.85
2024-03-10T13:57:55.501Z,12.78
2024-03-10T14:00:26.462Z,12.74
2024-03-10T14:02:54.941Z,12.69
2024-03-10T14:05:25.736Z,12.66
2024-03-10T14:07:54.132Z,12.68
2024-03-10T14:10:22.236Z,12.61
2024-03-10T14:12:50.053Z,12.61
2024-03-10T14:15:21.797Z,12.55
2024-03-10T14:17:49.856Z,12.62
2024-03-10T14:20:27.260Z,12.61
2024-03-10T14:22:55.703Z,12.65
2024-03-10T14:25:23.937Z,12.59
2024-03-10T14:27:53.456Z,12.60
2024-03-10T14:30:28.088Z,12.54
2024-03-10T14:32:58.050Z,12.55
2024-03-10T14:35:27.588Z,12.55
2024-03-10T14:37:57.230Z,12.44
2024-03-10T14:40:25.689Z,12.44
2024-03-10T14:42:56.338Z,12.41
2024-03-10T14:45:24.948Z,12.33
2024-03-10T14:47:53.905Z,12.31
2024-03-10T14:50:26.997Z,12.23
2024-03-10T14:52:56.477Z,12.22
2024-03-10T14:55:25.839Z,12.17
2024-03-10T14:57:54.654Z,12.12
2024-03-10T15:00:41.101Z,12.13
2024-03-10T15:03:16.669Z,12.13
2024-03-10T15:05:46.741Z,12.13
2024-03-10T15:08:18.028Z,12.08
2024-03-10T15:10:52.736Z,12.02
2024-03-10T15:13:24.124Z,12.00
2024-03-10T15:15:52.929Z,11.95
2024-03-10T15:18:21.040Z,11.91
2024-03-10T15:20:49.088Z,11.82
2024-03-10T15:23:20.233Z,11.77
2024-03-10T15:25:50.466Z,11.74
2024-03-10T15:28:21.672Z,11.65
2024-03-10T15:30:49.646Z,11.60
2024-03-10T15:33:18.195Z,11.54
2024-03-10T15:35:46.359Z,11.53
2024-03-10T15:38:15.186Z,11.47
2024-03-10T15:40:44.314Z,11.42
2024-03-10T15:43:13.797Z,11.36
2024-03-10T15:45:43.595Z,11.32
2024-03-10T15:48:12.707Z,11.31
2024-03-10T15:50:41.238Z,11.29
2024-03-10T15:53:11.752Z,11.25
2024-03-10T15:55:40.398Z,11.24
2024-03-10T15:58:09.186Z,11.22
2024-03-10T16:00:38.470Z,11.17
2024-03-10T16:03:14.546Z,11.16
2024-03-10T16:05:50.364Z,11.13
2024-03-10T16:08:19.959Z,11.12
2024-03-10T16:10:50.290Z,11.11
2024-03-10T16:13:37.839Z,11.09
2024-03-10T16:16:06.960Z,11.06
2024-03-10T16:18:38.398Z,11.06
2024-03-10T16:21:11.423Z,11.04
2024-03-10T16:23:39.740Z,11.04
2024-03-10T16:26:08.029Z,11.01
2024-03-10T16:28:36.019Z,10.99
2024-03-10T16:31:04.115Z,11.01
2024-03-10T16:33:31.971Z,11.01
2024-03-10T16:35:59.739Z,10.98
2024-03-10T16:38:27.529Z,10.97
2024-03-10T16:40:56.535Z,10.92
2024-03-10T16:43:25.052Z,10.89
2024-03-10T16:45:53.217Z,10.87
2024-03-10T16:48:21.207Z,10.84
2024-03-10T16:50:50.886Z,10.80
2024-03-10T16:53:18.805Z,10.80
2024-03-10T16:55:49.076Z,10.79
2024-03-10T16:58:20.491Z,10.79
2024-03-10T17:00:48.512Z,10.77
2024-03-10T17:03:16.886Z,10.77
2024-03-10T17:05:45.168Z,10.73
2024-03-10T17:08:14.882Z,10.69
2024-03-10T17:10:45.389Z,10.67
2024-03-10T17:13:15.048Z,10.61
2024-03-10T17:15:43.625Z,10.56
2024-03-10T17:18:14.348Z,10.55
2024-03-10T17:20:42.898Z,10.54
2024-03-10T17:23:13.931Z,10.48
2024-03-10T17:25:41.843Z,10.47
2024-03-10T17:28:09.786Z,10.46
2024-03-10T17:30:37.607Z,10.45
2024-03-10T17:33:05.968Z,10.42
2024-03-10T17:35:35.428Z,10.41
2024-03-10T17:38:05.513Z,10.39
2024-03-10T17:40:33.662Z,10.41
2024-03-10T17:43:01.635Z,10.39
2024-03-10T17:45:29.874Z,10.41
2024-03-10T17:48:00.547Z,10.42
2024-03-10T17:50:28.526Z,10.40
2024-03-10T17:52:56.718Z,10.38
2024-03-10T17:55:24.467Z,10.36
2024-03-10T17:57:52.719Z,10.32
2024-03-10T18:00:23.868Z,10.32
2024-03-10T18:02:52.005Z,10.31
2024-03-10T18:05:20.131Z,10.32
2024-03-10T18:07:52.323Z,10.31
2024-03-10T18:10:22.490Z,10.31
2024-03-10T18:12:54.854Z,10.29
2024-03-10T18:15:25.312Z,10.27
2024-03-10T18:17:54.291Z,10.26
2024-03-10T18:20:26.124Z,10.21
2024-03-10T18:22:54.243Z,10.19
2024-03-10T18:25:22.875Z,10.18
2024-03-10T18:27:51.938Z,10.17
2024-03-10T18:30:19.773Z,10.14
2024-03-10T18:32:48.772Z,10.11
2024-03-10T18:35:17.489Z,10.11
2024-03-10T18:37:46.074Z,10.06
2024-03-10T18:40:15.480Z,10.08
2024-03-10T18:42:44.347Z,10.06
2024-03-10T18:45:14.212Z,10.02
2024-03-10T18:47:42.463Z,9.99
2024-03-10T18:50:12.849Z,9.97
2024-03-10T18:52:42.482Z,9.94
2024-03-10T18:55:11.540Z,9.87
2024-03-10T18:57:39.719Z,9.85
2024-03-10T19:00:08.482Z,9.81
2024-03-10T19:02:36.891Z,9.74
2024-03-10T19:05:05.082Z,9.71
2024-03-10T19:07:32.986Z,9.69
2024-03-10T19:10:00.743Z,9.67
2024-03-10T19:12:28.565Z,9.66
2024-03-10T19:14:56.482Z,9.63
2024-03-10T19:17:26.234Z,9.60
2024-03-10T19:19:57.360Z,9.58
2024-03-10T19:22:25.234Z,9.53
2024-03-10T19:24:53.088Z,9.51
2024-03-10T19:27:20.905Z,9.44
2024-03-10T19:29:48.760Z,9.46
2024-03-10T19:32:16.553Z,9.43
2024-03-10T19:34:44.286Z,9.38
2024-03-10T19:37:11.996Z,9.36
2024-03-10T19:39:39.695Z,9.32
2024-03-10T19:42:07.671Z,9.28
2024-03-10T19:44:36.411Z,9.26
2024-03-10T19:47:06.343Z,9.21
2024-03-10T19:49:37.331Z,9.19
2024-03-10T19:52:05.449Z,9.17
2024-03-10T19:54:34.064Z,9.15
2024-03-10T19:57:02.024Z,9.11
2024-03-10T19:59:30.430Z,9.06
2024-03-10T20:02:00.674Z,9.03
2024-03-10T20:04:30.347Z,9.02
2024-03-10T20:06:58.337Z,9.02
2024-03-10T20:09:26.182Z,8.98
2024-03-10T20:11:55.051Z,8.95
2024-03-10T20:14:23.011Z,8.92
2024-03-10T20:16:50.938Z,8.89
2024-03-10T20:19:18.813Z,8.88
2024-03-10T20:21:46.549Z,8.86
2024-03-10T20:24:16.048Z,8.78
2024-03-10T20:26:44.061Z,8.74
2024-03-10T20:29:11.833Z,8.69
2024-03-10T20:31:39.855Z,8.67
2024-03-10T20:34:07.737Z,8.65
2024-03-10T20:36:37.311Z,8.63
2024-03-10T20:39:05.717Z,8.59
2024-03-10T20:41:33.461Z,8.56
2024-03-10T20:44:01.421Z,8.53
2024-03-10T20:46:34.628Z,8.48
2024-03-10T20:49:06.905Z,8.43
2024-03-10T20:51:35.146Z,8.42
2024-03-10T20:54:04.394Z,8.35
2024-03-10T20:56:32.175Z,8.32
2024-03-10T20:59:00.203Z,8.33
2024-03-10T21:01:28.475Z,8.23
2024-03-10T21:03:56.455Z,8.21
2024-03-10T21:06:24.549Z,8.16
2024-03-10T21:08:52.314Z,8.12
2024-03-10T21:11:20.343Z,8.10
2024-03-10T21:13:49.648Z,8.03
2024-03-10T21:16:17.382Z,8.00
2024-03-10T21:18:45.379Z,7.95
2024-03-10T21:21:13.190Z,7.92
2024-03-10T21:23:41.280Z,7.91
2024-03-10T21:26:09.597Z,7.88
2024-03-10T21:28:37.962Z,7.82
2024-03-10T21:31:05.720Z,7.80
2024-03-10T21:33:33.732Z,7.78
2024-03-10T21:36:03.511Z,7.75
2024-03-10T21:38:31.278Z,7.72
2024-03-10T21:41:03.977Z,7.66
2024-03-10T21:43:31.798Z,7.61
2024-03-10T21:46:04.192Z,7.60
2024-03-10T21:48:32.022Z,7.55
2024-03-10T21:51:00.336Z,7.51
2024-03-10T21:53:28.126Z,7.45
2024-03-10T21:55:55.942Z,7.43
2024-03-10T21:58:23.855Z,7.37
2024-03-10T22:00:51.671Z,7.28
2024-03-10T22:03:22.544Z,7.20
2024-03-10T22:05:51.777Z,7.16
2024-03-10T22:08:19.790Z,7.10
2024-03-10T22:10:47.503Z,7.04
2024-03-10T22:13:15.358Z,6.94
2024-03-10T22:15:43.349Z,6.86
2024-03-10T22:18:11.575Z,6.79
2024-03-10T22:20:39.625Z,6.73
2024-03-10T22:23:07.699Z,6.65
2024-03-10T22:25:35.629Z,6.59
2024-03-10T22:28:04.030Z,6.54
2024-03-10T22:30:33.037Z,6.51
2024-03-10T22:33:01.394Z,6.44
2024-03-10T22:35:29.483Z,6.41
2024-03-10T22:37:59.047Z,6.35
2024-03-10T22:40:29.140Z,6.30
2024-03-10T22:42:59.355Z,6.27
2024-03-10T22:45:31.420Z,6.24
2024-03-10T22:48:02.417Z,6.22
2024-03-10T22:50:31.405Z,6.18
2024-03-10T22:53:04.021Z,6.17
2024-03-10T22:55:33.458Z,6.16
2024-03-10T22:58:02.460Z,6.14
2024-03-10T23:00:37.214Z,6.09
2024-03-10T23:03:08.448Z,6.06
2024-03-10T23:05:37.306Z,6.04
2024-03-10T23:08:06.908Z,6.03
2024-03-10T23:10:43.351Z,6.01
2024-03-10T23:13:11.720Z,5.99
2024-03-10T23:15:40.855Z,5.97
2024-03-10T23:18:09.164Z,5.99
2024-03-10T23:20:37.338Z,5.97
2024-03-10T23:23:05.706Z,5.96
2024-03-10T23:25:33.600Z,5.96
2024-03-10T23:28:01.431Z,5.91
2024-03-10T23:30:29.283Z,5.85
2024-03-10T23:32:57.527Z,5.83
2024-03-10T23:35:26.016Z,5.79
2024-03-10T23:37:54.865Z,5.75
2024-03-10T23:40:24.739Z,5.75
2024-03-10T23:42:53.684Z,5.74
2024-03-10T23:45:22.004Z,5.70
2024-03-10T23:47:52.145Z,5.72
2024-03-10T23:50:22.053Z,5.70
2024-03-10T23:52:54.068Z,5.68
2024-03-10T23:55:34.858Z,5.66
2024-03-10T23:58:02.609Z,5.66
